Detalii statie AGRIND TASNAD [0000197A]

Toti senzorii

Date Temperatura solului [C]Precipitatii [mm]Voltaj baterie [mV]Leaf Wetness [Min]HC Air temperature [C]HC Relative humidity [%]Punctul de roua [C]
medieminmaxsumaultimatimpmedieminmaxmediemediemin
2020-01-21 22:00:00 0.7 0.7 0.7 0 6816 -0.81 -0.83 -0.79 100 -0.6 -0.7
2020-01-21 22:10:00 0.7 0.7 0.7 0 6776 -0.81 -0.82 -0.81 100 -0.7 -0.7
2020-01-21 22:20:00 0.7 0.7 0.7 0 6796 -0.84 -0.86 -0.83 100 -0.7 -0.7
2020-01-21 22:30:00 0.7 0.7 0.7 0 6806 -0.85 -0.86 -0.85 100 -0.7 -0.7
2020-01-21 22:40:00 0.7 0.7 0.7 0 6796 -0.85 -0.87 -0.84 100 -0.7 -0.7
2020-01-21 22:50:00 0.6 0.6 0.7 0 6806 -0.87 -0.89 -0.86 100 -0.7 -0.7
2020-01-21 23:00:00 0.7 0.7 0.7 0 6806 -0.87 -0.91 -0.84 100 -0.7 -0.8
2020-01-21 23:10:00 0.7 0.7 0.7 0 6786 -0.9 -0.91 -0.89 100 -0.7 -0.8
2020-01-21 23:20:00 0.7 0.7 0.7 0 6796 -0.86 -0.88 -0.84 100 -0.7 -0.7
2020-01-21 23:30:00 0.7 0.7 0.7 0 6796 -0.85 -0.86 -0.85 100 -0.7 -0.7
2020-01-21 23:40:00 0.7 0.7 0.7 0 6806 -0.83 -0.84 -0.82 100 -0.7 -0.7
2020-01-21 23:50:00 0.7 0.7 0.7 0 6796 -0.84 -0.87 -0.82 100 -0.7 -0.7
2020-01-22 00:00:00 0.7 0.7 0.7 0 6806 -0.83 -0.85 -0.82 100 -0.7 -0.7
2020-01-22 00:10:00 0.6 0.6 0.7 0 6748 -0.81 -0.82 -0.8 100 -0.7 -0.7
2020-01-22 00:20:00 0.7 0.7 0.7 0 6786 -0.79 -0.8 -0.79 100 -0.6 -0.7
2020-01-22 00:30:00 0.6 0.6 0.7 0 6786 -0.78 -0.79 -0.77 100 -0.6 -0.6
2020-01-22 00:40:00 0.7 0.7 0.7 0 6796 -0.77 -0.81 -0.74 100 -0.6 -0.7
2020-01-22 00:50:00 0.7 0.7 0.7 0 6806 -0.75 -0.76 -0.74 100 -0.6 -0.6
2020-01-22 01:00:00 0.7 0.7 0.7 0 6806 -0.72 -0.74 -0.71 100 -0.6 -0.6
2020-01-22 01:10:00 0.7 0.7 0.7 0 6776 -0.71 -0.73 -0.7 100 -0.6 -0.6
2020-01-22 01:20:00 0.7 0.7 0.7 0 6796 -0.69 -0.7 -0.68 100 -0.5 -0.6
2020-01-22 01:30:00 0.6 0.6 0.7 0 6796 -0.67 -0.67 -0.67 100 -0.5 -0.5
2020-01-22 01:40:00 0.7 0.7 0.7 0 6806 -0.65 -0.67 -0.63 100 -0.5 -0.5
2020-01-22 01:50:00 0.7 0.7 0.7 0 6796 -0.62 -0.64 -0.61 100 -0.5 -0.5
2020-01-22 02:00:00 0.7 0.7 0.7 0 6806 -0.58 -0.6 -0.56 100 -0.4 -0.5
2020-01-22 02:10:00 0.7 0.7 0.7 0 6776 -0.54 -0.55 -0.54 100 -0.4 -0.4
2020-01-22 02:20:00 0.6 0.6 0.7 0 6796 -0.52 -0.53 -0.52 100 -0.4 -0.4
2020-01-22 02:30:00 0.7 0.7 0.7 0 6796 -0.49 -0.52 -0.47 100 -0.3 -0.4
2020-01-22 02:40:00 0.7 0.7 0.7 0 6796 -0.53 -0.57 -0.49 100 -0.3 -0.4
2020-01-22 02:50:00 0.7 0.7 0.7 0 6806 -0.58 -0.59 -0.57 100 -0.4 -0.4
2020-01-22 03:00:00 0.7 0.7 0.7 0 6806 -0.59 -0.59 -0.59 100 -0.4 -0.4
2020-01-22 03:10:00 0.6 0.6 0.7 0 6776 -0.58 -0.61 -0.55 100 -0.4 -0.5
2020-01-22 03:20:00 0.7 0.7 0.8 0 6796 -0.6 -0.62 -0.58 100 -0.4 -0.5
2020-01-22 03:30:00 0.7 0.7 0.7 0 6796 -0.62 -0.64 -0.61 100 -0.5 -0.5
2020-01-22 03:40:00 0.7 0.7 0.7 0 6796 -0.6 -0.63 -0.58 100 -0.4 -0.5
2020-01-22 03:50:00 0.7 0.7 0.7 0 6796 -0.56 -0.56 -0.56 100 -0.4 -0.4
2020-01-22 04:00:00 0.7 0.7 0.7 0 6806 -0.54 -0.55 -0.54 100 -0.4 -0.4
2020-01-22 04:10:00 0.7 0.7 0.7 0 6776 -0.53 -0.53 -0.53 100 -0.4 -0.4
2020-01-22 04:20:00 0.7 0.7 0.7 0 6786 -0.53 -0.54 -0.53 100 -0.4 -0.4
2020-01-22 04:30:00 0.7 0.7 0.7 0 6796 -0.52 -0.53 -0.52 100 -0.4 -0.4
2020-01-22 04:40:00 0.7 0.7 0.7 0 6796 -0.52 -0.53 -0.51 100 -0.4 -0.4
2020-01-22 04:50:00 0.7 0.7 0.7 0 6806 -0.49 -0.52 -0.47 100 -0.3 -0.4
2020-01-22 05:00:00 0.7 0.7 0.7 0 6796 -0.48 -0.49 -0.48 100 -0.3 -0.3
2020-01-22 05:10:00 0.6 0.6 0.7 0 6776 -0.5 -0.54 -0.46 100 -0.3 -0.4
2020-01-22 05:20:00 0.7 0.7 0.7 0 6796 -0.62 -0.64 -0.6 100 -0.5 -0.5
2020-01-22 05:30:00 0.6 0.6 0.7 0 6786 -0.49 -0.52 -0.47 100 -0.3 -0.4
2020-01-22 05:40:00 0.7 0.7 0.7 0 6806 -0.4 -0.43 -0.38 100 -0.2 -0.3
2020-01-22 05:50:00 0.7 0.7 0.7 0 6796 -0.39 -0.4 -0.39 100 -0.2 -0.3